Time;durP1;ratioP1;P1;durP2;ratioP2;P2;SDS_P1;SDS_P2;PMS_P1;PMS_P2;Temp;Humidity;BMP_temperature;BMP_pressure;BME280_temperature;BME280_humidity;BME280_pressure;Samples;Min_cycle;Max_cycle;Signal;HPM_P1;HPM_P2
2022/04/21 00:00:39;;;;;;;10.63;8.73;;;1.80;99.90;;;;;;5034791;28;20053;-48
2022/04/21 00:03:05;;;;;;;8.50;7.60;;;1.60;99.90;;;;;;5034840;28;20057;-54
2022/04/21 00:05:32;;;;;;;9.98;7.88;;;1.60;99.90;;;;;;5034529;28;20053;-49
2022/04/21 00:07:58;;;;;;;9.75;8.48;;;1.70;99.90;;;;;;5034640;28;20026;-50
2022/04/21 00:10:25;;;;;;;12.25;8.35;;;1.70;99.90;;;;;;5034410;28;20029;-50
2022/04/21 00:12:51;;;;;;;9.55;7.90;;;1.70;99.90;;;;;;5034532;28;20033;-49
2022/04/21 00:15:18;;;;;;;10.63;7.00;;;1.70;99.90;;;;;;5034195;28;20064;-47
2022/04/21 00:17:44;;;;;;;9.15;7.75;;;1.70;99.90;;;;;;5034458;28;20083;-51
2022/04/21 00:20:11;;;;;;;8.55;6.90;;;1.70;99.90;;;;;;5034453;28;20025;-48
2022/04/21 00:25:21;;;;;;;9.73;8.20;;;1.70;99.90;;;;;;5034379;28;20042;-51
2022/04/21 00:27:47;;;;;;;9.88;8.43;;;1.70;99.90;;;;;;5034183;28;20033;-51
2022/04/21 00:30:16;;;;;;;10.55;8.23;;;1.70;99.90;;;;;;5034131;28;20045;-52
2022/04/21 00:32:41;;;;;;;9.25;7.45;;;1.70;99.90;;;;;;5034211;28;20083;-47
2022/04/21 00:35:11;;;;;;;10.93;8.95;;;1.80;99.90;;;;;;5034029;28;20025;-50
2022/04/21 00:37:51;;;;;;;9.95;7.82;;;1.70;99.90;;;;;;5034129;28;20025;-50
2022/04/21 00:40:21;;;;;;;9.45;8.45;;;1.70;99.90;;;;;;5033977;28;20560;-47
2022/04/21 00:42:47;;;;;;;10.60;7.53;;;1.80;99.90;;;;;;5032701;28;20030;-49
2022/04/21 00:45:14;;;;;;;11.32;7.85;;;1.80;99.90;;;;;;5033845;28;20034;-49
2022/04/21 00:47:42;;;;;;;11.68;8.10;;;1.80;99.90;;;;;;5032801;28;20369;-49
2022/04/21 00:50:12;;;;;;;12.07;8.80;;;1.80;99.90;;;;;;5033749;28;20029;-51
2022/04/21 00:52:38;;;;;;;9.88;8.02;;;1.80;99.90;;;;;;5033774;28;20105;-49
2022/04/21 00:55:05;;;;;;;9.43;7.65;;;1.80;99.90;;;;;;5033786;28;20434;-50
2022/04/21 00:57:32;;;;;;;9.63;8.38;;;1.80;99.90;;;;;;5033698;28;20485;-50
2022/04/21 00:59:58;;;;;;;9.90;8.05;;;1.80;99.90;;;;;;5033703;28;20548;-48
2022/04/21 01:05:09;;;;;;;10.75;9.15;;;1.60;99.90;;;;;;5033381;28;20037;-49
2022/04/21 01:07:35;;;;;;;10.15;8.75;;;1.50;99.90;;;;;;5033560;28;20025;-51
2022/04/21 01:10:01;;;;;;;11.77;9.10;;;1.50;99.90;;;;;;5033423;28;20473;-50
2022/04/21 01:12:27;;;;;;;10.23;8.27;;;1.60;99.90;;;;;;5033446;28;20025;-48
2022/04/21 01:14:52;;;;;;;12.68;8.82;;;1.60;99.90;;;;;;5031943;28;20668;-53
2022/04/21 01:17:31;;;;;;;16.45;9.35;;;1.60;99.90;;;;;;5033268;28;20057;-50
2022/04/21 01:19:56;;;;;;;9.50;8.18;;;1.60;99.90;;;;;;5033309;28;20048;-49
2022/04/21 01:22:22;;;;;;;10.85;8.63;;;1.40;99.90;;;;;;5033154;28;20376;-50
2022/04/21 01:24:48;;;;;;;13.05;10.27;;;1.30;99.90;;;;;;5033332;28;20468;-50
2022/04/21 01:27:13;;;;;;;13.20;9.95;;;1.30;99.90;;;;;;5032991;28;20034;-53
2022/04/21 01:29:39;;;;;;;9.77;8.45;;;1.30;99.90;;;;;;5031716;28;20092;-50
2022/04/21 01:32:05;;;;;;;13.70;8.38;;;1.20;99.90;;;;;;5031894;28;20025;-48
2022/04/21 01:34:30;;;;;;;11.20;9.77;;;1.20;99.90;;;;;;5033003;28;20025;-51
2022/04/21 01:42:24;;;;;;;14.02;10.23;;;1.30;99.90;;;;;;5032756;28;20060;-52
2022/04/21 01:44:50;;;;;;;11.45;9.77;;;1.20;99.90;;;;;;5032688;28;20065;-50
2022/04/21 01:47:15;;;;;;;10.95;9.10;;;1.20;99.90;;;;;;5032601;28;20025;-47
2022/04/21 01:49:41;;;;;;;15.13;9.73;;;1.30;99.90;;;;;;5032763;28;20033;-49
2022/04/21 01:52:07;;;;;;;9.98;8.55;;;1.30;99.90;;;;;;5032665;28;20374;-52
2022/04/21 01:54:32;;;;;;;14.25;8.55;;;1.30;99.90;;;;;;5032740;28;20450;-49
2022/04/21 01:56:58;;;;;;;11.27;9.27;;;1.30;99.90;;;;;;5032679;28;20445;-48
2022/04/21 01:59:23;;;;;;;9.95;8.90;;;1.30;99.90;;;;;;5031020;28;20384;-52
2022/04/21 02:01:50;;;;;;;15.85;10.73;;;1.30;99.90;;;;;;5031179;28;20086;-50
2022/04/21 02:04:16;;;;;;;11.75;8.68;;;1.30;99.90;;;;;;5032607;28;20033;-48
2022/04/21 02:06:41;;;;;;;9.98;8.38;;;1.30;99.90;;;;;;5032430;28;20033;-52
2022/04/21 02:09:07;;;;;;;10.57;9.25;;;1.30;99.90;;;;;;5032322;28;20056;-52
2022/04/21 02:11:32;;;;;;;9.88;8.63;;;1.30;99.90;;;;;;5031888;28;20432;-51
2022/04/21 02:13:58;;;;;;;12.07;9.32;;;1.30;99.90;;;;;;5032064;28;20029;-50
2022/04/21 02:16:24;;;;;;;12.30;8.60;;;1.20;99.90;;;;;;5031940;28;20033;-49
2022/04/21 02:18:50;;;;;;;9.32;8.30;;;1.30;99.90;;;;;;5032169;28;20029;-49
2022/04/21 02:21:16;;;;;;;9.48;8.48;;;1.30;99.90;;;;;;5031700;28;20018;-49
2022/04/21 02:23:41;;;;;;;10.65;8.90;;;1.10;99.90;;;;;;5032043;28;20032;-51
2022/04/21 02:26:07;;;;;;;10.35;9.23;;;1.10;99.90;;;;;;5031858;28;20032;-54
2022/04/21 02:28:33;;;;;;;12.60;9.27;;;1.10;99.90;;;;;;5031954;28;20121;-50
2022/04/21 02:30:58;;;;;;;12.13;9.00;;;1.10;99.90;;;;;;5031895;28;20021;-52
2022/04/21 02:33:24;;;;;;;10.18;9.13;;;1.10;99.90;;;;;;5031708;28;20075;-49
2022/04/21 02:35:50;;;;;;;10.98;8.68;;;1.10;99.90;;;;;;5031949;28;20017;-51
2022/04/21 02:38:16;;;;;;;8.98;8.07;;;1.30;99.90;;;;;;5031776;28;20032;-50
2022/04/21 02:40:43;;;;;;;9.57;7.55;;;1.30;99.90;;;;;;5031833;28;20022;-53
2022/04/21 02:43:08;;;;;;;10.50;8.77;;;1.30;99.90;;;;;;5031574;28;20076;-51
2022/04/21 02:45:35;;;;;;;12.40;9.25;;;1.30;99.90;;;;;;5031811;28;20033;-51
2022/04/21 02:48:01;;;;;;;10.05;8.02;;;1.30;99.90;;;;;;5031509;28;20025;-52
2022/04/21 02:50:26;;;;;;;10.13;8.57;;;1.30;99.90;;;;;;5031493;28;20543;-49
2022/04/21 02:52:53;;;;;;;10.63;8.57;;;1.30;99.90;;;;;;5031681;28;20017;-51
2022/04/21 02:58:04;;;;;;;12.40;9.48;;;1.30;99.90;;;;;;5031453;28;20048;-52
2022/04/21 03:00:30;;;;;;;15.20;9.27;;;1.30;99.90;;;;;;5031463;28;20108;-55
2022/04/21 03:02:58;;;;;;;11.40;9.75;;;1.30;99.90;;;;;;5031492;28;20117;-58
2022/04/21 03:05:24;;;;;;;8.90;8.00;;;1.20;99.90;;;;;;5031425;28;20026;-54
2022/04/21 03:07:49;;;;;;;10.02;8.23;;;1.30;99.90;;;;;;5031472;28;20073;-52
2022/04/21 03:10:15;;;;;;;11.32;9.43;;;1.20;99.90;;;;;;5031209;28;20115;-53
2022/04/21 03:12:41;;;;;;;16.50;9.00;;;1.20;99.90;;;;;;5031424;28;20022;-53
2022/04/21 03:15:11;;;;;;;15.35;9.43;;;1.20;99.90;;;;;;5031282;28;20037;-56
2022/04/21 03:17:36;;;;;;;11.40;8.73;;;1.20;99.90;;;;;;5031567;28;20075;-55
2022/04/21 03:20:03;;;;;;;9.27;8.32;;;1.20;99.90;;;;;;5031421;28;20029;-55
2022/04/21 03:25:32;;;;;;;9.95;8.80;;;1.20;99.90;;;;;;5031417;28;20049;-52
2022/04/21 03:27:57;;;;;;;14.55;8.32;;;1.30;99.90;;;;;;5031428;28;20040;-52
2022/04/21 03:30:23;;;;;;;21.35;14.50;;;1.30;99.90;;;;;;5031122;28;20660;-53
2022/04/21 03:32:48;;;;;;;29.45;17.05;;;1.40;99.90;;;;;;5030892;28;20025;-55
2022/04/21 03:35:14;;;;;;;19.52;12.43;;;1.50;99.90;;;;;;5033768;28;20029;-55
2022/04/21 03:37:40;;;;;;;14.98;10.25;;;1.40;99.90;;;;;;5033959;28;20523;-56
2022/04/21 03:40:06;;;;;;;10.88;8.57;;;1.40;99.90;;;;;;5033799;28;20022;-52
2022/04/21 03:42:32;;;;;;;14.15;10.20;;;1.30;99.90;;;;;;5033922;28;20080;-57
2022/04/21 03:44:59;;;;;;;13.05;8.43;;;1.20;99.90;;;;;;5034401;28;20025;-51
2022/04/21 03:47:25;;;;;;;10.30;8.88;;;1.20;99.90;;;;;;5034119;28;20059;-53
2022/04/21 03:49:51;;;;;;;12.07;9.88;;;1.30;99.90;;;;;;5034228;28;20104;-54
2022/04/21 03:52:19;;;;;;;11.45;9.50;;;1.30;99.90;;;;;;5033834;28;20021;-51
2022/04/21 03:54:45;;;;;;;14.57;10.07;;;1.40;99.90;;;;;;5034062;28;20112;-53
2022/04/21 03:57:11;;;;;;;15.18;11.07;;;1.60;99.90;;;;;;5034563;28;20022;-54
2022/04/21 03:59:36;;;;;;;18.25;11.82;;;1.70;99.90;;;;;;5034425;28;20036;-51
2022/04/21 04:02:03;;;;;;;21.38;11.48;;;1.90;99.90;;;;;;5034187;28;20029;-51
2022/04/21 04:04:30;;;;;;;16.77;11.35;;;2.00;99.90;;;;;;5033830;28;20022;-52
2022/04/21 04:12:32;;;;;;;17.45;13.20;;;2.30;99.90;;;;;;5034559;28;20604;-49
2022/04/21 04:14:59;;;;;;;;;;;2.40;99.90;;;;;;5033514;28;20493;-52
2022/04/21 04:17:25;;;;;;;18.55;12.32;;;2.50;99.90;;;;;;5034369;28;19909;-50
2022/04/21 04:19:51;;;;;;;21.27;14.32;;;2.70;99.90;;;;;;5034388;28;20112;-53
2022/04/21 04:22:16;;;;;;;18.83;13.35;;;2.90;99.90;;;;;;5034359;28;20069;-52
2022/04/21 04:24:44;;;;;;;20.08;13.60;;;3.10;99.90;;;;;;5034235;28;20033;-49
2022/04/21 04:27:10;;;;;;;22.95;12.93;;;3.30;99.90;;;;;;5034148;28;20684;-53
2022/04/21 04:29:35;;;;;;;17.75;13.15;;;3.40;99.90;;;;;;5034336;28;20121;-51
2022/04/21 04:32:01;;;;;;;18.02;13.52;;;3.50;99.90;;;;;;5034428;28;20025;-57
2022/04/21 04:34:27;;;;;;;15.80;11.40;;;3.70;99.90;;;;;;5033997;28;20022;-51
2022/04/21 04:36:53;;;;;;;23.30;13.80;;;3.80;99.90;;;;;;5034343;28;20021;-51
2022/04/21 04:39:18;;;;;;;19.20;13.85;;;3.80;99.90;;;;;;5033833;28;20026;-53
2022/04/21 04:44:29;;;;;;;14.30;12.30;;;4.00;99.90;;;;;;5033518;28;20557;-50
2022/04/21 04:46:55;;;;;;;18.15;11.13;;;4.10;99.90;;;;;;5034046;28;20108;-55
2022/04/21 04:49:21;;;;;;;10.98;9.48;;;4.10;99.90;;;;;;5033797;28;20028;-49
2022/04/21 04:51:47;;;;;;;12.48;9.05;;;3.80;99.90;;;;;;5033895;28;20049;-54
2022/04/21 04:54:14;;;;;;;12.40;9.50;;;3.70;99.90;;;;;;5033610;28;20644;-52
2022/04/21 04:56:43;;;;;;;14.00;9.80;;;3.50;99.90;;;;;;5033850;28;20049;-48
2022/04/21 04:59:09;;;;;;;9.90;8.43;;;3.40;99.90;;;;;;5033502;28;20413;-49
2022/04/21 05:01:42;;;;;;;10.82;9.57;;;3.30;99.90;;;;;;5033711;28;20029;-52
2022/04/21 05:04:18;;;;;;;14.13;11.80;;;3.20;99.90;;;;;;5033497;28;20037;-54
2022/04/21 05:06:45;;;;;;;25.70;12.88;;;3.40;99.90;;;;;;5033339;28;20025;-50
2022/04/21 05:09:13;;;;;;;14.25;11.02;;;3.60;99.90;;;;;;5032956;28;20108;-48
2022/04/21 05:11:41;;;;;;;10.65;8.77;;;3.80;99.90;;;;;;5031806;28;20025;-50
2022/04/21 05:14:08;;;;;;;12.07;9.13;;;3.90;99.90;;;;;;5032447;28;20065;-49
2022/04/21 05:16:37;;;;;;;11.48;9.35;;;3.80;99.90;;;;;;5033427;28;20064;-52
2022/04/21 05:19:14;;;;;;;13.07;11.10;;;3.60;99.90;;;;;;5033301;28;20021;-49
2022/04/21 05:21:41;;;;;;;19.65;14.00;;;3.40;99.90;;;;;;5033318;28;20022;-50
2022/04/21 05:24:07;;;;;;;22.13;14.93;;;3.60;99.90;;;;;;5033011;28;20034;-52
2022/04/21 05:26:34;;;;;;;19.52;14.85;;;3.80;99.90;;;;;;5033137;28;20025;-49
2022/04/21 05:30:55;;;;;;;22.63;15.18;;;4.10;99.90;;;;;;5033145;28;20347;-51
2022/04/21 05:32:02;;;;;;;16.60;14.63;;;4.30;99.90;;;;;;5032931;28;20454;-52
2022/04/21 05:34:30;;;;;;;21.13;14.18;;;4.60;99.90;;;;;;5032449;28;20029;-53
2022/04/21 05:36:58;;;;;;;23.05;14.18;;;4.80;99.90;;;;;;5032866;28;20075;-55
2022/04/21 05:39:25;;;;;;;17.05;13.57;;;4.90;99.90;;;;;;5032691;28;20686;-56
2022/04/21 05:41:52;;;;;;;16.50;13.45;;;5.00;99.90;;;;;;5032939;28;20029;-52
2022/04/21 05:44:18;;;;;;;19.23;13.52;;;5.20;99.90;;;;;;5032725;28;20017;-54
2022/04/21 05:46:44;;;;;;;19.20;14.18;;;5.30;99.90;;;;;;5032871;28;20026;-54
2022/04/21 05:49:11;;;;;;;14.55;12.52;;;5.40;99.90;;;;;;5032488;28;20040;-54
2022/04/21 05:51:37;;;;;;;19.05;12.38;;;5.40;99.90;;;;;;5032633;28;20026;-54
2022/04/21 05:54:05;;;;;;;13.60;11.93;;;5.40;99.90;;;;;;5032760;28;20109;-50
2022/04/21 05:56:32;;;;;;;15.50;12.73;;;5.50;99.90;;;;;;5031805;28;20049;-52
2022/04/21 05:58:58;;;;;;;18.08;13.52;;;5.50;99.90;;;;;;5032626;28;20025;-53
2022/04/21 06:01:24;;;;;;;18.63;12.80;;;5.60;99.90;;;;;;5032420;28;20052;-51
2022/04/21 06:03:51;;;;;;;21.83;13.52;;;5.70;99.90;;;;;;5032527;28;20021;-51
2022/04/21 06:06:17;;;;;;;14.75;11.20;;;5.70;99.90;;;;;;5032165;28;20116;-52
2022/04/21 06:08:42;;;;;;;17.38;13.32;;;5.80;99.90;;;;;;5032393;28;20116;-50
2022/04/21 06:11:08;;;;;;;16.08;12.38;;;5.80;99.90;;;;;;5032296;28;20034;-53
2022/04/21 06:13:34;;;;;;;19.30;13.70;;;5.90;99.90;;;;;;5032054;28;20036;-49
2022/04/21 06:16:00;;;;;;;21.60;13.25;;;6.00;99.90;;;;;;5032282;28;20018;-52
2022/04/21 06:18:26;;;;;;;20.13;12.55;;;6.00;99.90;;;;;;5032045;28;20029;-53
2022/04/21 06:20:53;;;;;;;18.05;13.02;;;6.00;99.90;;;;;;5032346;28;20025;-53
2022/04/21 06:23:19;;;;;;;16.40;12.52;;;6.10;99.90;;;;;;5031943;28;20108;-51
2022/04/21 06:25:45;;;;;;;16.83;12.77;;;6.10;99.90;;;;;;5032115;28;20148;-52
2022/04/21 06:28:11;;;;;;;20.63;14.65;;;6.20;99.90;;;;;;5031925;28;20088;-52
2022/04/21 06:30:37;;;;;;;18.52;15.18;;;6.30;99.90;;;;;;5031971;28;20033;-48
2022/04/21 06:33:03;;;;;;;28.60;13.48;;;6.30;99.90;;;;;;5031872;28;20025;-51
2022/04/21 06:35:29;;;;;;;19.35;12.50;;;6.40;99.90;;;;;;5031689;28;20030;-52
2022/04/21 06:37:55;;;;;;;17.38;12.65;;;6.40;99.90;;;;;;5031895;28;20025;-54
2022/04/21 06:40:22;;;;;;;17.77;13.38;;;6.50;99.90;;;;;;5031654;28;20060;-49
2022/04/21 06:42:48;;;;;;;16.30;12.00;;;6.40;99.90;;;;;;5031799;28;20403;-51
2022/04/21 06:48:04;;;;;;;15.23;12.10;;;6.60;99.90;;;;;;5032019;28;20395;-50
2022/04/21 06:50:32;;;;;;;14.63;11.88;;;6.50;99.90;;;;;;5031503;28;20029;-54
2022/04/21 06:52:58;;;;;;;20.02;12.23;;;6.60;99.90;;;;;;5031679;28;20025;-52
2022/04/21 06:55:23;;;;;;;14.93;11.57;;;6.70;99.90;;;;;;5031445;28;20017;-54
2022/04/21 06:57:49;;;;;;;21.85;13.50;;;6.80;99.90;;;;;;5031703;28;20032;-53
2022/04/21 07:00:15;;;;;;;18.80;12.93;;;6.90;99.90;;;;;;5029926;28;20030;-52
2022/04/21 07:02:42;;;;;;;15.98;12.10;;;6.90;99.90;;;;;;5031582;28;20035;-51
2022/04/21 07:05:10;;;;;;;17.02;12.55;;;7.10;99.90;;;;;;5031405;28;20030;-57
2022/04/21 07:07:36;;;;;;;15.50;12.68;;;7.00;99.90;;;;;;5031393;28;20032;-51
2022/04/21 07:10:03;;;;;;;18.88;14.55;;;7.10;99.90;;;;;;5030280;28;20033;-51
2022/04/21 07:12:32;;;;;;;15.50;12.25;;;7.20;99.90;;;;;;5031237;28;20022;-53
2022/04/21 07:15:00;;;;;;;16.38;13.82;;;7.30;99.90;;;;;;5030001;28;20080;-51
2022/04/21 07:17:25;;;;;;;18.15;13.52;;;7.50;99.90;;;;;;5031344;28;20504;-56
2022/04/21 07:19:51;;;;;;;16.15;12.52;;;7.50;99.90;;;;;;5031336;28;20061;-52
2022/04/21 07:22:20;;;;;;;18.02;13.10;;;7.70;99.90;;;;;;5031099;28;20061;-55
2022/04/21 07:24:47;;;;;;;16.38;12.43;;;7.70;99.90;;;;;;5031454;28;20043;-55
2022/04/21 07:27:13;;;;;;;17.40;12.20;;;7.60;99.90;;;;;;5031152;28;20394;-52
2022/04/21 07:29:39;;;;;;;15.75;13.45;;;7.70;99.90;;;;;;5031187;28;20116;-51
2022/04/21 07:32:05;;;;;;;18.38;13.85;;;7.80;99.90;;;;;;5031255;28;20120;-52
2022/04/21 07:34:32;;;;;;;15.85;12.25;;;7.70;99.90;;;;;;5029844;28;20026;-55
2022/04/21 07:36:57;;;;;;;21.92;13.02;;;7.90;99.90;;;;;;5031169;28;20026;-51
2022/04/21 07:39:24;;;;;;;25.40;13.75;;;8.00;99.90;;;;;;5031137;28;20032;-56
2022/04/21 07:41:50;;;;;;;18.40;12.93;;;8.10;99.90;;;;;;5029904;28;20037;-54
2022/04/21 07:44:16;;;;;;;17.42;12.68;;;8.10;99.90;;;;;;5031008;28;20053;-55
2022/04/21 07:46:42;;;;;;;17.88;12.63;;;8.20;99.90;;;;;;5031221;28;20056;-54
2022/04/21 07:53:12;;;;;;;127.18;69.72;;;8.50;99.90;;;;;;5031195;28;20543;-52
2022/04/21 07:54:38;;;;;;;25.10;19.23;;;8.30;99.90;;;;;;5031001;28;20025;-56
2022/04/21 07:57:04;;;;;;;18.80;14.30;;;8.50;99.90;;;;;;5031178;28;20028;-56
2022/04/21 07:59:29;;;;;;;19.00;12.57;;;8.70;99.90;;;;;;5030965;28;20036;-56
2022/04/21 08:01:56;;;;;;;18.88;12.98;;;8.90;99.90;;;;;;5030790;28;20030;-52
2022/04/21 08:04:22;;;;;;;19.38;14.40;;;9.00;99.90;;;;;;5030901;28;20021;-52
2022/04/21 08:06:48;;;;;;;20.02;14.38;;;9.10;99.90;;;;;;5031037;28;20417;-57
2022/04/21 08:09:14;;;;;;;16.40;13.23;;;9.30;99.90;;;;;;5029437;28;20064;-53
2022/04/21 08:11:40;;;;;;;18.92;14.80;;;9.40;99.90;;;;;;5031054;28;20489;-54
2022/04/21 08:14:05;;;;;;;15.98;13.82;;;9.70;99.90;;;;;;5030703;28;20045;-58
2022/04/21 08:16:32;;;;;;;22.20;15.65;;;9.60;99.90;;;;;;5030713;28;20021;-53
2022/04/21 08:18:59;;;;;;;16.38;14.13;;;9.80;99.90;;;;;;5032246;28;20029;-54
2022/04/21 08:21:25;;;;;;;20.75;13.20;;;9.90;99.90;;;;;;5034629;28;20037;-55
2022/04/21 08:23:51;;;;;;;19.90;13.45;;;10.00;99.90;;;;;;5034344;28;20088;-51
2022/04/21 08:34:30;;;;;;;;;;;10.10;99.90;;;;;;5034598;28;20037;-54
2022/04/21 08:36:56;;;;;;;20.35;18.23;;;10.50;99.90;;;;;;5034189;28;20374;-54
2022/04/21 08:39:22;;;;;;;21.35;17.33;;;10.40;99.90;;;;;;5033880;28;20025;-55
2022/04/21 08:41:51;;;;;;;20.88;16.98;;;10.40;99.90;;;;;;5034195;28;20030;-51
2022/04/21 08:44:20;;;;;;;15.68;13.15;;;10.20;99.50;;;;;;5033834;28;20532;-54
2022/04/21 08:46:48;;;;;;;18.58;13.85;;;10.30;99.90;;;;;;5032587;28;20082;-52
2022/04/21 08:49:17;;;;;;;19.67;15.40;;;10.60;99.90;;;;;;5033747;28;20037;-54
2022/04/21 08:51:43;;;;;;;18.75;14.75;;;10.50;99.90;;;;;;5034102;28;20057;-57
2022/04/21 08:54:08;;;;;;;18.48;14.57;;;10.60;99.90;;;;;;5033620;28;20465;-57
2022/04/21 08:56:34;;;;;;;24.75;15.25;;;10.70;99.90;;;;;;5033689;28;20017;-56
2022/04/21 08:59:00;;;;;;;23.02;14.75;;;10.90;99.70;;;;;;5033939;28;20108;-56
2022/04/21 09:01:26;;;;;;;16.85;13.80;;;10.90;99.40;;;;;;5033552;28;20026;-56
2022/04/21 09:03:52;;;;;;;24.08;14.95;;;11.20;99.60;;;;;;5033663;28;20028;-55
2022/04/21 09:06:21;;;;;;;16.10;14.32;;;11.30;99.00;;;;;;5033541;28;20036;-57
2022/04/21 09:08:48;;;;;;;17.25;13.77;;;11.40;98.90;;;;;;5033575;28;20108;-55
2022/04/21 09:11:15;;;;;;;16.55;13.63;;;11.30;99.10;;;;;;5033468;28;20029;-55
2022/04/21 09:13:43;;;;;;;22.60;13.88;;;11.60;98.40;;;;;;5033332;28;20039;-56
2022/04/21 09:16:11;;;;;;;18.00;14.50;;;11.30;97.70;;;;;;5033262;28;20037;-55
2022/04/21 09:18:42;;;;;;;19.35;15.75;;;11.60;99.00;;;;;;5033469;28;20014;-58
2022/04/21 09:21:14;;;;;;;19.30;14.18;;;11.80;97.50;;;;;;5033276;28;20380;-56
2022/04/21 09:23:41;;;;;;;41.85;28.05;;;11.90;97.60;;;;;;5033327;28;20024;-57
2022/04/21 09:26:12;;;;;;;22.63;15.98;;;11.90;96.40;;;;;;5033179;28;20030;-57
2022/04/21 09:28:38;;;;;;;19.90;14.77;;;11.90;98.00;;;;;;5033318;28;20045;-55
2022/04/21 09:31:08;;;;;;;23.27;16.90;;;12.00;97.60;;;;;;5031959;28;20029;-56
2022/04/21 09:33:41;;;;;;;21.80;14.32;;;12.20;96.40;;;;;;5032867;28;20022;-56
2022/04/21 09:36:08;;;;;;;20.15;15.68;;;12.20;96.20;;;;;;5032981;28;20505;-55
2022/04/21 09:38:35;;;;;;;24.63;14.45;;;12.20;95.60;;;;;;5033186;28;20022;-57
2022/04/21 09:41:09;;;;;;;26.13;14.45;;;12.00;95.60;;;;;;5033047;28;20421;-56
2022/04/21 09:43:37;;;;;;;21.60;14.07;;;12.00;95.90;;;;;;5052540;28;20546;-57
2022/04/21 09:46:12;;;;;;;21.02;15.85;;;12.20;95.50;;;;;;5052479;28;20049;-57
2022/04/21 09:48:38;;;;;;;20.45;15.45;;;12.40;95.30;;;;;;5052661;28;20032;-57
2022/04/21 09:51:14;;;;;;;19.58;14.70;;;12.70;95.50;;;;;;5052688;28;20104;-55
2022/04/21 09:53:58;;;;;;;22.13;13.90;;;12.90;96.40;;;;;;5052426;28;20025;-53
2022/04/21 09:56:32;;;;;;;18.77;12.43;;;13.10;95.70;;;;;;5051788;28;20060;-57
2022/04/21 09:59:02;;;;;;;17.15;13.57;;;13.10;94.20;;;;;;5052710;28;20372;-57
2022/04/21 10:01:29;;;;;;;20.27;14.80;;;13.20;94.70;;;;;;5052174;28;20075;-54
2022/04/21 10:03:55;;;;;;;19.40;14.77;;;13.50;94.40;;;;;;5052243;28;20036;-58
2022/04/21 10:06:22;;;;;;;20.48;15.25;;;13.20;94.00;;;;;;5052200;28;20025;-57
2022/04/21 10:08:49;;;;;;;21.50;16.00;;;13.30;94.70;;;;;;5052336;28;20028;-56
2022/04/21 10:11:23;;;;;;;21.02;15.20;;;13.20;94.50;;;;;;5051993;28;20037;-54
2022/04/21 10:13:53;;;;;;;18.67;15.70;;;13.40;95.00;;;;;;5051970;28;20426;-56
2022/04/21 10:16:19;;;;;;;23.63;15.57;;;13.70;93.60;;;;;;5051989;28;20021;-57
2022/04/21 10:18:50;;;;;;;19.42;15.25;;;13.60;93.70;;;;;;5052282;28;20032;-56
2022/04/21 10:21:50;;;;;;;23.02;16.30;;;13.80;93.90;;;;;;5051882;28;20021;-56
2022/04/21 10:24:26;;;;;;;19.30;15.27;;;13.90;93.60;;;;;;5051446;28;20116;-58
2022/04/21 10:26:52;;;;;;;20.25;15.93;;;13.80;93.50;;;;;;5051947;28;20056;-57
2022/04/21 10:29:23;;;;;;;19.63;15.48;;;14.00;92.40;;;;;;5051404;28;20112;-56
2022/04/21 10:32:05;;;;;;;23.00;16.73;;;14.00;93.20;;;;;;5051935;28;20357;-57
2022/04/21 10:34:42;;;;;;;25.33;16.15;;;13.90;91.60;;;;;;5051814;28;20409;-58
2022/04/21 10:37:12;;;;;;;21.60;16.85;;;14.10;93.00;;;;;;5051650;28;20017;-57
2022/04/21 10:39:39;;;;;;;22.80;18.30;;;14.10;92.20;;;;;;5051713;28;20108;-56
2022/04/21 10:42:13;;;;;;;22.48;17.13;;;14.40;93.20;;;;;;5051233;28;20032;-53
2022/04/21 10:44:50;;;;;;;20.65;17.05;;;14.30;90.40;;;;;;5051760;28;20113;-56
2022/04/21 10:47:35;;;;;;;23.35;17.63;;;14.00;91.60;;;;;;5051549;28;20029;-57
2022/04/21 10:50:10;;;;;;;24.27;17.50;;;14.20;91.50;;;;;;5051525;28;20037;-56
2022/04/21 10:57:53;;;;;;;23.98;18.15;;;14.90;91.40;;;;;;5051475;28;20075;-57
2022/04/21 11:00:27;;;;;;;16.38;14.07;;;14.90;91.70;;;;;;5051203;28;20025;-59
2022/04/21 11:03:01;;;;;;;19.33;16.10;;;15.20;89.20;;;;;;5051602;28;20021;-55
2022/04/21 11:05:35;;;;;;;18.45;15.85;;;14.80;87.10;;;;;;5051277;28;20116;-56
2022/04/21 11:08:13;;;;;;;19.35;15.82;;;14.90;88.20;;;;;;5051687;28;20488;-56
2022/04/21 11:10:38;;;;;;;20.88;16.65;;;14.90;87.40;;;;;;5051258;28;20025;-56
2022/04/21 11:13:12;;;;;;;24.35;18.48;;;15.40;85.60;;;;;;5051333;28;20032;-57
2022/04/21 11:15:49;;;;;;;19.92;14.88;;;15.70;84.90;;;;;;5051066;28;20037;-57
2022/04/21 11:18:28;;;;;;;24.15;15.93;;;16.00;82.80;;;;;;5050943;28;20104;-58
2022/04/21 11:21:26;;;;;;;17.52;14.55;;;16.10;82.50;;;;;;5051190;28;20040;-57
2022/04/21 11:23:52;;;;;;;18.90;15.13;;;16.50;81.30;;;;;;5051216;28;20474;-57
2022/04/21 11:26:25;;;;;;;15.98;13.75;;;17.00;78.30;;;;;;5051090;28;20079;-58
2022/04/21 11:28:50;;;;;;;15.15;12.52;;;16.90;76.60;;;;;;5051136;28;20037;-57
2022/04/21 11:31:20;;;;;;;14.65;13.05;;;17.60;75.70;;;;;;5051044;28;20028;-58
2022/04/21 11:33:47;;;;;;;15.80;13.68;;;17.90;72.30;;;;;;5051081;28;20017;-58
2022/04/21 11:36:16;;;;;;;17.15;12.73;;;18.20;72.50;;;;;;5050940;28;20071;-57
2022/04/21 11:38:43;;;;;;;19.08;15.20;;;18.20;71.40;;;;;;5051025;28;20021;-58
2022/04/21 11:41:12;;;;;;;20.67;14.23;;;18.00;71.30;;;;;;5050941;28;20070;-57
2022/04/21 11:43:48;;;;;;;17.13;14.80;;;18.20;69.80;;;;;;5051217;28;20079;-57
2022/04/21 11:46:14;;;;;;;16.25;13.40;;;19.00;71.00;;;;;;5049711;28;20396;-59
2022/04/21 11:48:41;;;;;;;12.70;11.18;;;20.00;66.40;;;;;;5051051;28;20493;-58
2022/04/21 11:51:09;;;;;;;12.55;11.10;;;21.00;62.20;;;;;;5050812;28;20054;-59
2022/04/21 11:53:36;;;;;;;11.43;10.23;;;21.40;59.30;;;;;;5051144;28;20017;-59
2022/04/21 11:56:06;;;;;;;14.40;11.68;;;21.40;56.20;;;;;;5053621;28;20376;-58
2022/04/21 11:58:36;;;;;;;15.38;13.75;;;21.30;55.40;;;;;;5053545;28;20021;-55
2022/04/21 12:06:44;;;;;;;14.85;11.63;;;21.70;50.10;;;;;;5054430;28;20044;-59
2022/04/21 12:09:18;;;;;;;18.08;11.68;;;22.10;49.70;;;;;;5053686;28;20117;-57
2022/04/21 12:12:04;;;;;;;17.63;10.20;;;22.40;50.80;;;;;;5053854;28;20025;-60
2022/04/21 12:14:30;;;;;;;10.77;9.60;;;22.40;48.60;;;;;;5053989;28;20064;-57
2022/04/21 12:17:00;;;;;;;12.50;10.38;;;23.40;49.80;;;;;;5054386;28;20037;-59
2022/04/21 12:19:40;;;;;;;16.55;9.25;;;22.70;45.60;;;;;;5054216;28;20029;-54
2022/04/21 12:22:20;;;;;;;15.63;10.40;;;22.20;47.40;;;;;;5053065;28;20495;-57
2022/04/21 12:24:50;;;;;;;13.70;10.77;;;22.30;45.90;;;;;;5054264;28;20041;-58
2022/04/21 12:27:16;;;;;;;12.02;8.88;;;23.20;47.80;;;;;;5054207;28;20025;-56
2022/04/21 12:29:58;;;;;;;9.95;7.55;;;22.50;44.30;;;;;;5053622;28;20033;-58
2022/04/21 12:32:28;;;;;;;8.90;8.10;;;22.30;46.00;;;;;;5053658;28;20076;-56
2022/04/21 12:34:55;;;;;;;11.20;8.10;;;22.10;44.60;;;;;;5054229;28;20500;-59
2022/04/21 12:37:36;;;;;;;9.25;8.35;;;21.70;45.40;;;;;;5052573;28;20460;-59
2022/04/21 12:40:47;;;;;;;8.23;7.43;;;22.00;44.30;;;;;;5019458;28;20041;-58
2022/04/21 12:43:13;;;;;;;8.98;8.07;;;22.60;46.30;;;;;;5043116;28;20033;-58
2022/04/21 12:45:39;;;;;;;8.93;8.02;;;23.30;45.70;;;;;;5023674;28;20036;-56
2022/04/21 12:48:22;;;;;;;11.13;7.28;;;23.90;44.70;;;;;;5028360;28;20064;-59
2022/04/21 12:50:49;;;;;;;11.93;7.18;;;24.90;44.00;;;;;;5024647;28;20123;-59
2022/04/21 12:53:29;;;;;;;7.32;6.63;;;25.40;41.90;;;;;;5023559;28;20670;-59
2022/04/21 12:55:55;;;;;;;10.25;6.63;;;25.20;41.90;;;;;;5037606;28;20025;-60
2022/04/21 12:58:31;;;;;;;11.48;6.13;;;25.00;40.00;;;;;;5022925;28;20044;-60
2022/04/21 13:01:01;;;;;;;8.95;5.97;;;25.00;40.50;;;;;;5044090;28;20464;-59
2022/04/21 13:03:27;;;;;;;10.73;6.18;;;24.60;39.00;;;;;;5038965;28;20037;-59
2022/04/21 13:05:55;;;;;;;5.63;4.85;;;24.50;38.70;;;;;;5023727;28;20041;-60
2022/04/21 13:08:23;;;;;;;5.40;4.53;;;25.70;40.00;;;;;;5023287;28;20044;-59
2022/04/21 13:10:50;;;;;;;7.68;5.03;;;26.10;38.60;;;;;;5042772;28;20116;-60
2022/04/21 13:13:16;;;;;;;9.15;4.35;;;25.80;39.10;;;;;;5042052;28;20201;-60
2022/04/21 13:15:41;;;;;;;11.27;5.15;;;25.70;37.00;;;;;;5042648;28;20569;-59
2022/04/21 13:18:07;;;;;;;8.30;6.70;;;26.00;38.90;;;;;;5042440;28;20047;-59
2022/04/21 13:23:17;;;;;;;7.55;5.93;;;24.80;40.00;;;;;;5020560;28;20048;-59
2022/04/21 13:25:43;;;;;;;7.28;6.43;;;24.40;39.60;;;;;;5022723;28;20034;-59
2022/04/21 13:28:10;;;;;;;8.63;6.82;;;23.70;40.50;;;;;;5041452;28;20385;-59
2022/04/21 13:30:36;;;;;;;8.48;6.93;;;23.90;41.10;;;;;;5040943;28;20742;-59
2022/04/21 13:35:45;;;;;;;7.70;5.15;;;23.60;41.40;;;;;;5022194;28;20421;-58
2022/04/21 13:38:11;;;;;;;7.38;6.60;;;23.10;40.30;;;;;;5023386;28;20029;-58